Time;durP1;ratioP1;P1;durP2;ratioP2;P2;SDS_P1;SDS_P2;PMS_P1;PMS_P2;Temp;Humidity;BMP_temperature;BMP_pressure;BME280_temperature;BME280_humidity;BME280_pressure;Samples;Min_cycle;Max_cycle;Signal;HPM_P1;HPM_P2
2022/04/14 00:02:11;;;;;;;25.93;13.00;;;;;;;;;;5000889;28;20256;-80
2022/04/14 00:04:39;;;;;;;20.40;12.77;;;;;;;;;;4998869;28;20312;-77
2022/04/14 00:07:04;;;;;;;23.27;12.73;;;;;;;;;;5015480;28;20224;-79
2022/04/14 00:09:35;;;;;;;21.73;13.20;;;;;;;;;;5006823;28;20365;-79
2022/04/14 00:12:00;;;;;;;22.00;13.23;;;;;;;;;;4981360;28;20324;-79
2022/04/14 00:14:26;;;;;;;23.47;13.60;;;;;;;;;;4973163;28;20238;-79
2022/04/14 00:16:51;;;;;;;20.83;12.13;;;;;;;;;;4983915;28;20295;-79
2022/04/14 00:19:22;;;;;;;26.23;13.33;;;;;;;;;;4990574;28;20221;-80
2022/04/14 00:21:47;;;;;;;18.70;12.07;;;;;;;;;;4968377;28;20225;-80
2022/04/14 00:24:13;;;;;;;19.07;12.07;;;;;;;;;;4993446;28;20723;-80
2022/04/14 00:26:38;;;;;;;20.80;12.50;;;;;;;;;;4983477;28;20324;-81
2022/04/14 00:29:03;;;;;;;21.90;13.13;;;;;;;;;;4974352;28;20280;-79
2022/04/14 00:31:29;;;;;;;23.83;13.43;;;;;;;;;;4981514;28;20245;-80
2022/04/14 00:33:56;;;;;;;20.63;13.07;;;;;;;;;;5010142;28;20225;-79
2022/04/14 00:36:25;;;;;;;22.00;13.10;;;;;;;;;;4969528;28;20230;-80
2022/04/14 00:38:50;;;;;;;19.23;12.43;;;;;;;;;;5000308;28;20719;-80
2022/04/14 00:41:17;;;;;;;23.43;13.00;;;;;;;;;;4962434;28;20226;-81
2022/04/14 00:43:44;;;;;;;21.07;12.37;;;;;;;;;;4998765;28;20321;-80
2022/04/14 00:46:10;;;;;;;21.58;13.10;;;;;;;;;;5000067;28;20306;-78
2022/04/14 00:48:35;;;;;;;23.60;12.87;;;;;;;;;;4997080;28;20336;-79
2022/04/14 00:51:03;;;;;;;20.37;12.20;;;;;;;;;;5006746;28;20229;-79
2022/04/14 00:53:28;;;;;;;19.43;12.70;;;;;;;;;;4999062;28;20237;-79
2022/04/14 00:55:53;;;;;;;18.97;12.33;;;;;;;;;;4999012;28;20268;-80
2022/04/14 00:58:21;;;;;;;25.58;13.30;;;;;;;;;;4997614;28;20688;-79
2022/04/14 01:00:49;;;;;;;18.60;12.57;;;;;;;;;;4963833;28;20284;-80
2022/04/14 01:03:15;;;;;;;19.80;12.65;;;;;;;;;;4986041;28;20230;-78
2022/04/14 01:05:40;;;;;;;20.70;12.67;;;;;;;;;;4967376;28;20237;-79
2022/04/14 01:08:08;;;;;;;21.88;12.70;;;;;;;;;;4996151;28;20217;-80
2022/04/14 01:10:41;;;;;;;19.60;12.13;;;;;;;;;;4946281;28;20222;-78
2022/04/14 01:13:10;;;;;;;21.50;12.63;;;;;;;;;;4981004;28;20222;-79
2022/04/14 01:15:35;;;;;;;19.77;13.00;;;;;;;;;;4997985;28;20228;-80
2022/04/14 01:18:03;;;;;;;17.08;12.27;;;;;;;;;;4980949;28;20222;-80
2022/04/14 01:20:29;;;;;;;16.93;12.27;;;;;;;;;;4979539;28;20214;-78
2022/04/14 01:22:56;;;;;;;21.02;12.82;;;;;;;;;;4986792;28;20356;-80
2022/04/14 01:25:22;;;;;;;20.67;12.87;;;;;;;;;;4999278;28;20234;-80
2022/04/14 01:27:50;;;;;;;19.90;12.33;;;;;;;;;;5000478;28;20218;-80
2022/04/14 01:30:17;;;;;;;20.50;13.68;;;;;;;;;;4989548;28;20314;-80
2022/04/14 01:32:48;;;;;;;23.40;13.73;;;;;;;;;;4989477;28;20309;-78
2022/04/14 01:35:15;;;;;;;22.17;14.93;;;;;;;;;;4988635;28;20221;-78
2022/04/14 01:37:41;;;;;;;18.63;13.40;;;;;;;;;;4963886;28;20699;-78
2022/04/14 01:40:09;;;;;;;20.80;14.10;;;;;;;;;;4989705;28;20308;-80
2022/04/14 01:42:37;;;;;;;18.95;13.45;;;;;;;;;;5001450;28;20221;-80
2022/04/14 01:45:10;;;;;;;20.10;13.20;;;;;;;;;;4984720;28;20239;-79
2022/04/14 01:47:42;;;;;;;20.52;13.60;;;;;;;;;;4994894;28;20304;-78
2022/04/14 01:50:12;;;;;;;19.73;13.52;;;;;;;;;;5001029;28;20225;-77
2022/04/14 01:52:40;;;;;;;20.57;13.77;;;;;;;;;;4951553;28;20218;-80
2022/04/14 01:55:06;;;;;;;18.63;13.60;;;;;;;;;;4978336;28;20229;-80
2022/04/14 01:57:32;;;;;;;21.73;14.50;;;;;;;;;;4981436;28;20221;-77
2022/04/14 02:00:01;;;;;;;17.30;13.97;;;;;;;;;;4991231;28;20288;-77
2022/04/14 02:02:29;;;;;;;21.35;14.45;;;;;;;;;;5006707;28;20218;-77
2022/04/14 02:04:55;;;;;;;20.95;13.85;;;;;;;;;;4983231;28;20244;-76
2022/04/14 02:07:25;;;;;;;25.10;15.10;;;;;;;;;;4970844;28;20233;-76
2022/04/14 02:09:50;;;;;;;22.17;15.27;;;;;;;;;;4996394;28;20230;-79
2022/04/14 02:12:15;;;;;;;24.75;16.38;;;;;;;;;;5002302;28;20242;-79
2022/04/14 02:14:41;;;;;;;20.60;14.65;;;;;;;;;;5003681;28;20266;-79
2022/04/14 02:17:06;;;;;;;22.43;15.43;;;;;;;;;;4988009;28;20237;-78
2022/04/14 02:19:32;;;;;;;20.90;15.27;;;;;;;;;;4979067;28;20314;-78
2022/04/14 02:21:58;;;;;;;20.83;15.13;;;;;;;;;;4993620;28;20233;-79
2022/04/14 02:24:26;;;;;;;20.65;14.80;;;;;;;;;;4993152;28;20305;-79
2022/04/14 02:26:52;;;;;;;20.80;14.50;;;;;;;;;;5000851;28;20246;-79
2022/04/14 02:29:18;;;;;;;20.10;14.97;;;;;;;;;;4977760;28;20257;-78
2022/04/14 02:31:45;;;;;;;21.35;15.25;;;;;;;;;;4993069;28;20233;-79
2022/04/14 02:34:11;;;;;;;23.10;16.07;;;;;;;;;;4975919;28;20229;-78
2022/04/14 02:36:36;;;;;;;21.93;15.07;;;;;;;;;;5006526;28;20226;-79
2022/04/14 02:39:02;;;;;;;21.03;16.17;;;;;;;;;;4995291;28;20229;-78
2022/04/14 02:41:29;;;;;;;24.80;15.87;;;;;;;;;;4986977;28;20221;-78
2022/04/14 02:43:57;;;;;;;24.47;16.93;;;;;;;;;;5003720;28;20660;-79
2022/04/14 02:46:23;;;;;;;26.10;18.43;;;;;;;;;;4990423;28;20268;-79
2022/04/14 02:48:53;;;;;;;21.30;16.97;;;;;;;;;;4991411;28;20241;-78
2022/04/14 02:51:18;;;;;;;25.17;17.87;;;;;;;;;;4992015;28;20253;-78
2022/04/14 02:53:44;;;;;;;30.37;18.70;;;;;;;;;;4994853;28;20815;-78
2022/04/14 02:56:12;;;;;;;29.77;18.13;;;;;;;;;;4994536;28;20309;-79
2022/04/14 02:58:40;;;;;;;26.93;18.87;;;;;;;;;;4978934;28;20230;-79
2022/04/14 03:01:05;;;;;;;28.93;18.83;;;;;;;;;;4979055;28;20704;-79
2022/04/14 03:03:30;;;;;;;30.67;19.63;;;;;;;;;;4992839;28;20299;-78
2022/04/14 03:05:56;;;;;;;29.43;19.57;;;;;;;;;;4997085;28;20314;-79
2022/04/14 03:08:23;;;;;;;32.90;20.37;;;;;;;;;;4998499;28;20252;-77
2022/04/14 03:10:49;;;;;;;41.27;22.73;;;;;;;;;;4995390;28;20229;-78
2022/04/14 03:13:21;;;;;;;36.17;20.30;;;;;;;;;;4984353;28;20729;-79
2022/04/14 03:15:49;;;;;;;40.07;22.10;;;;;;;;;;4987411;28;20221;-79
2022/04/14 03:18:15;;;;;;;40.13;22.53;;;;;;;;;;4963520;28;20316;-77
2022/04/14 03:20:40;;;;;;;41.87;23.27;;;;;;;;;;4973634;28;20221;-79
2022/04/14 03:23:06;;;;;;;46.70;24.10;;;;;;;;;;4991799;28;20223;-78
2022/04/14 03:25:31;;;;;;;46.57;24.53;;;;;;;;;;4994826;28;20304;-79
2022/04/14 03:27:59;;;;;;;42.13;23.13;;;;;;;;;;5011275;28;20293;-79
2022/04/14 03:30:27;;;;;;;42.73;23.67;;;;;;;;;;4981969;28;20225;-79
2022/04/14 03:32:55;;;;;;;44.13;23.37;;;;;;;;;;4981687;28;20269;-79
2022/04/14 03:35:20;;;;;;;48.23;24.47;;;;;;;;;;4948318;28;20697;-77
2022/04/14 03:37:48;;;;;;;44.60;24.33;;;;;;;;;;4994732;28;20256;-79
2022/04/14 03:40:18;;;;;;;45.23;23.23;;;;;;;;;;4985413;28;20222;-78
2022/04/14 03:42:43;;;;;;;43.77;23.43;;;;;;;;;;4999181;28;20229;-79
2022/04/14 03:45:09;;;;;;;40.50;23.43;;;;;;;;;;5000204;28;20297;-78
2022/04/14 03:47:35;;;;;;;43.63;23.80;;;;;;;;;;4983314;28;20237;-80
2022/04/14 03:50:00;;;;;;;48.57;24.73;;;;;;;;;;5003235;28;20225;-78
2022/04/14 03:52:26;;;;;;;44.30;24.27;;;;;;;;;;4992643;28;20606;-80
2022/04/14 03:54:51;;;;;;;42.00;23.50;;;;;;;;;;4979372;28;20268;-80
2022/04/14 03:57:17;;;;;;;46.73;23.80;;;;;;;;;;4989006;28;20738;-79
2022/04/14 03:59:42;;;;;;;46.47;24.03;;;;;;;;;;4983535;28;20870;-79
2022/04/14 04:02:10;;;;;;;46.20;25.37;;;;;;;;;;4984218;28;20285;-77
2022/04/14 04:04:38;;;;;;;46.53;24.47;;;;;;;;;;4990570;28;20667;-80
2022/04/14 04:07:04;;;;;;;46.30;24.40;;;;;;;;;;4997818;28;20253;-80
2022/04/14 04:09:33;;;;;;;42.77;24.10;;;;;;;;;;4982617;28;20230;-77
2022/04/14 04:11:59;;;;;;;47.30;24.00;;;;;;;;;;4982369;28;20241;-79
2022/04/14 04:14:25;;;;;;;40.73;23.83;;;;;;;;;;4995300;28;20225;-79
2022/04/14 04:16:50;;;;;;;42.40;23.80;;;;;;;;;;4998823;28;20257;-80
2022/04/14 04:19:16;;;;;;;46.70;23.93;;;;;;;;;;4998731;28;20234;-79
2022/04/14 04:21:41;;;;;;;46.03;23.23;;;;;;;;;;4965470;28;20228;-79
2022/04/14 04:24:09;;;;;;;41.77;23.63;;;;;;;;;;4997505;28;20253;-79
2022/04/14 04:26:34;;;;;;;43.97;24.37;;;;;;;;;;4996501;28;20319;-81
2022/04/14 04:29:00;;;;;;;43.87;23.87;;;;;;;;;;5007304;28;20704;-79
2022/04/14 04:31:28;;;;;;;39.37;24.13;;;;;;;;;;4986656;28;20493;-81
2022/04/14 04:33:53;;;;;;;40.77;23.30;;;;;;;;;;4988358;28;20288;-80
2022/04/14 04:36:19;;;;;;;40.27;23.80;;;;;;;;;;5004258;28;20234;-81
2022/04/14 04:38:44;;;;;;;42.23;23.77;;;;;;;;;;4999487;28;20324;-79
2022/04/14 04:41:10;;;;;;;43.87;24.03;;;;;;;;;;4983169;28;20285;-80
2022/04/14 04:43:35;;;;;;;43.50;25.33;;;;;;;;;;5024816;28;20273;-77
2022/04/14 04:46:03;;;;;;;42.47;23.73;;;;;;;;;;5011990;28;20237;-77
2022/04/14 04:48:28;;;;;;;42.30;24.40;;;;;;;;;;5016901;28;20449;-78
2022/04/14 04:50:54;;;;;;;40.63;24.47;;;;;;;;;;5011321;28;20218;-77
2022/04/14 04:53:19;;;;;;;43.37;25.63;;;;;;;;;;5000788;28;20307;-79
2022/04/14 04:55:45;;;;;;;45.80;27.57;;;;;;;;;;4993208;28;20310;-77
2022/04/14 04:58:10;;;;;;;46.53;29.03;;;;;;;;;;4988365;28;20248;-77
2022/04/14 05:00:38;;;;;;;46.57;28.30;;;;;;;;;;5019278;28;20226;-77
2022/04/14 05:03:08;;;;;;;44.67;25.53;;;;;;;;;;4999806;28;20289;-77
2022/04/14 05:05:35;;;;;;;42.30;23.60;;;;;;;;;;5014823;28;20241;-76
2022/04/14 05:08:05;;;;;;;39.17;22.90;;;;;;;;;;5000520;28;20213;-77
2022/04/14 05:10:34;;;;;;;38.73;23.90;;;;;;;;;;5007179;28;20234;-76
2022/04/14 05:12:59;;;;;;;35.27;21.77;;;;;;;;;;5023060;28;20229;-77
2022/04/14 05:15:28;;;;;;;36.50;23.57;;;;;;;;;;5019396;28;20225;-76
2022/04/14 05:17:55;;;;;;;29.60;21.23;;;;;;;;;;4981260;28;20253;-77
2022/04/14 05:20:21;;;;;;;33.87;21.67;;;;;;;;;;4987813;28;20238;-79
2022/04/14 05:22:52;;;;;;;28.83;20.13;;;;;;;;;;5018252;28;20221;-76
2022/04/14 05:25:20;;;;;;;25.58;20.13;;;;;;;;;;5003586;28;20250;-77
2022/04/14 05:27:50;;;;;;;25.47;19.00;;;;;;;;;;4985866;28;20217;-78
2022/04/14 05:30:16;;;;;;;30.03;21.97;;;;;;;;;;5008920;28;20602;-78
2022/04/14 05:32:41;;;;;;;26.03;19.07;;;;;;;;;;4966482;28;20225;-76
2022/04/14 05:35:09;;;;;;;23.57;19.70;;;;;;;;;;4988392;28;20268;-78
2022/04/14 05:37:35;;;;;;;26.53;19.43;;;;;;;;;;4990358;28;20229;-78
2022/04/14 05:40:05;;;;;;;22.53;19.77;;;;;;;;;;4992342;28;20754;-77
2022/04/14 05:42:30;;;;;;;21.20;17.73;;;;;;;;;;4992082;28;20249;-77
2022/04/14 05:44:58;;;;;;;24.20;20.20;;;;;;;;;;5003220;28;20297;-77
2022/04/14 05:47:28;;;;;;;19.17;16.85;;;;;;;;;;4981748;28;20228;-77
2022/04/14 05:49:54;;;;;;;20.90;17.03;;;;;;;;;;5016791;28;20256;-78
2022/04/14 05:52:20;;;;;;;19.13;17.07;;;;;;;;;;5002364;28;20222;-79
2022/04/14 05:54:46;;;;;;;21.40;17.50;;;;;;;;;;4989243;28;20591;-78
2022/04/14 05:57:12;;;;;;;22.00;19.67;;;;;;;;;;4997579;28;20234;-78
2022/04/14 05:59:38;;;;;;;22.83;20.53;;;;;;;;;;4993941;28;20225;-78
2022/04/14 06:02:04;;;;;;;28.23;25.30;;;;;;;;;;4994566;28;20275;-78
2022/04/14 06:04:29;;;;;;;25.03;22.47;;;;;;;;;;4991655;28;20695;-78
2022/04/14 06:06:57;;;;;;;26.67;24.03;;;;;;;;;;5006695;28;20226;-79
2022/04/14 06:09:25;;;;;;;19.47;16.77;;;;;;;;;;4981728;28;20680;-78
2022/04/14 06:11:50;;;;;;;15.20;13.57;;;;;;;;;;4989839;28;20237;-79
2022/04/14 06:14:21;;;;;;;0.43;0.43;;;;;;;;;;4985685;28;20293;-78
2022/04/14 06:16:49;;;;;;;0.80;0.80;;;;;;;;;;4957635;28;20244;-80
2022/04/14 06:19:17;;;;;;;0.23;0.23;;;;;;;;;;4989545;28;20276;-78
2022/04/14 06:21:44;;;;;;;0.13;0.13;;;;;;;;;;4968327;28;20230;-80
2022/04/14 06:24:10;;;;;;;0.27;0.27;;;;;;;;;;4990097;28;20229;-80
2022/04/14 06:26:37;;;;;;;0.10;0.10;;;;;;;;;;4994899;28;20309;-80
2022/04/14 06:29:05;;;;;;;0.10;0.10;;;;;;;;;;4986420;28;20227;-79
2022/04/14 06:31:33;;;;;;;0.20;0.20;;;;;;;;;;4997146;28;20233;-80
2022/04/14 06:33:58;;;;;;;0.20;0.20;;;;;;;;;;5001937;28;20222;-79
2022/04/14 06:36:24;;;;;;;0.30;0.30;;;;;;;;;;4997349;28;20317;-81
2022/04/14 06:38:52;;;;;;;0.27;0.27;;;;;;;;;;4997535;28;20225;-81
2022/04/14 06:41:22;;;;;;;0.60;0.60;;;;;;;;;;4991881;28;20605;-79
2022/04/14 06:43:49;;;;;;;0.10;0.10;;;;;;;;;;4989481;28;20225;-80
2022/04/14 06:46:16;;;;;;;0.37;0.37;;;;;;;;;;4997986;28;20735;-78
2022/04/14 06:48:47;;;;;;;0.25;0.25;;;;;;;;;;4988511;28;20232;-81
2022/04/14 06:51:13;;;;;;;0.20;0.20;;;;;;;;;;4976572;28;20233;-79
2022/04/14 06:53:38;;;;;;;1.20;1.13;;;;;;;;;;4992271;28;20304;-80
2022/04/14 06:56:05;;;;;;;0.83;0.83;;;;;;;;;;5000213;28;20309;-79
2022/04/14 06:58:30;;;;;;;0.57;0.50;;;;;;;;;;4995845;28;20703;-80
2022/04/14 07:00:56;;;;;;;0.70;0.70;;;;;;;;;;4963896;28;20225;-80
2022/04/14 07:03:26;;;;;;;0.20;0.20;;;;;;;;;;4985070;28;20245;-79
2022/04/14 07:06:00;;;;;;;2.53;0.80;;;;;;;;;;4991687;28;20313;-80
2022/04/14 07:08:28;;;;;;;0.37;0.37;;;;;;;;;;5004054;28;20598;-79
2022/04/14 07:10:54;;;;;;;0.43;0.43;;;;;;;;;;4993791;28;20300;-79
2022/04/14 07:13:19;;;;;;;1.65;1.15;;;;;;;;;;4988108;28;20225;-78
2022/04/14 07:15:48;;;;;;;0.10;0.10;;;;;;;;;;4998228;28;20786;-79
2022/04/14 07:18:16;;;;;;;0.20;0.20;;;;;;;;;;4990109;28;20305;-80
2022/04/14 07:20:42;;;;;;;0.97;0.97;;;;;;;;;;4981179;28;20229;-80
2022/04/14 07:23:07;;;;;;;0.10;0.10;;;;;;;;;;4996555;28;20276;-79
2022/04/14 07:25:34;;;;;;;0.20;0.20;;;;;;;;;;4987723;28;20268;-79
2022/04/14 07:28:02;;;;;;;0.77;0.77;;;;;;;;;;4979887;28;20221;-80
2022/04/14 07:30:31;;;;;;;0.73;0.40;;;;;;;;;;5004543;28;20226;-77
2022/04/14 07:32:57;;;;;;;0.37;0.37;;;;;;;;;;4986149;28;20229;-80
2022/04/14 07:35:23;;;;;;;0.33;0.33;;;;;;;;;;4985931;28;20234;-80
2022/04/14 07:37:54;;;;;;;0.83;0.83;;;;;;;;;;5012022;28;20245;-79
2022/04/14 07:40:24;;;;;;;0.50;0.50;;;;;;;;;;4977672;28;20261;-79
2022/04/14 07:42:52;;;;;;;0.40;0.40;;;;;;;;;;4993609;28;20225;-79
2022/04/14 07:45:17;;;;;;;0.77;0.47;;;;;;;;;;5004844;28;20272;-78
2022/04/14 07:47:43;;;;;;;0.45;0.45;;;;;;;;;;4993278;28;20221;-80
2022/04/14 07:50:19;;;;;;;0.93;0.93;;;;;;;;;;4987361;28;20236;-78
2022/04/14 07:52:52;;;;;;;0.40;0.40;;;;;;;;;;4990193;28;20217;-80
2022/04/14 07:55:24;;;;;;;0.70;0.55;;;;;;;;;;5001776;28;20414;-79
2022/04/14 07:57:50;;;;;;;0.10;0.10;;;;;;;;;;5005582;28;20230;-78
2022/04/14 08:00:18;;;;;;;1.00;1.00;;;;;;;;;;5010258;28;20226;-77
2022/04/14 08:02:47;;;;;;;1.10;1.10;;;;;;;;;;5000882;28;20226;-79
2022/04/14 08:05:15;;;;;;;0.30;0.30;;;;;;;;;;5011688;28;20233;-78
2022/04/14 08:07:40;;;;;;;4.13;1.27;;;;;;;;;;4966108;28;20292;-79
2022/04/14 08:10:06;;;;;;;0.70;0.70;;;;;;;;;;4996459;28;20727;-80
2022/04/14 08:12:32;;;;;;;0.97;0.87;;;;;;;;;;4988362;28;20601;-80
2022/04/14 08:14:57;;;;;;;0.88;0.88;;;;;;;;;;4989632;28;20293;-78
2022/04/14 08:17:25;;;;;;;0.88;0.88;;;;;;;;;;4989148;28;20255;-79
2022/04/14 08:19:50;;;;;;;1.45;0.52;;;;;;;;;;4974532;28;20229;-77
2022/04/14 08:22:16;;;;;;;1.07;0.90;;;;;;;;;;4990743;28;20698;-79
2022/04/14 08:24:47;;;;;;;0.70;0.70;;;;;;;;;;4978162;28;20221;-80
2022/04/14 08:27:13;;;;;;;0.43;0.43;;;;;;;;;;4993549;28;20222;-80
2022/04/14 08:29:39;;;;;;;1.90;0.57;;;;;;;;;;4971821;28;20667;-77
2022/04/14 08:32:09;;;;;;;0.55;0.55;;;;;;;;;;4989038;28;20209;-80
2022/04/14 08:34:37;;;;;;;20.85;16.42;;;;;;;;;;4994128;28;20357;-79
2022/04/14 08:37:05;;;;;;;30.30;26.30;;;;;;;;;;4961550;28;20229;-79
2022/04/14 08:39:33;;;;;;;30.90;26.25;;;;;;;;;;4997127;28;20313;-77
2022/04/14 08:42:11;;;;;;;29.23;26.07;;;;;;;;;;4966016;28;20217;-79
2022/04/14 08:44:38;;;;;;;28.73;25.70;;;;;;;;;;4980687;28;20221;-79
2022/04/14 08:47:09;;;;;;;28.77;25.63;;;;;;;;;;4996767;28;20222;-79
2022/04/14 08:49:37;;;;;;;27.27;24.48;;;;;;;;;;4981934;28;20253;-78
2022/04/14 08:52:03;;;;;;;29.13;25.35;;;;;;;;;;4980606;28;20214;-80
2022/04/14 08:54:28;;;;;;;27.92;24.92;;;;;;;;;;4995296;28;20218;-79
2022/04/14 08:56:58;;;;;;;29.17;26.33;;;;;;;;;;4974668;28;20297;-77
2022/04/14 08:59:25;;;;;;;28.83;25.95;;;;;;;;;;5017464;28;20226;-77
2022/04/14 09:01:51;;;;;;;29.92;26.67;;;;;;;;;;4974352;28;20225;-77
2022/04/14 09:04:16;;;;;;;29.67;26.55;;;;;;;;;;5009782;28;20225;-76
2022/04/14 09:06:42;;;;;;;29.30;26.20;;;;;;;;;;4996656;28;20229;-77
2022/04/14 09:09:10;;;;;;;30.42;27.27;;;;;;;;;;4985633;28;20806;-78
2022/04/14 09:11:38;;;;;;;30.38;27.27;;;;;;;;;;5008762;28;20257;-78
2022/04/14 09:14:04;;;;;;;28.45;25.67;;;;;;;;;;5001278;28;20226;-79
2022/04/14 09:16:33;;;;;;;30.10;26.92;;;;;;;;;;5019407;28;20229;-78
2022/04/14 09:19:00;;;;;;;28.70;25.85;;;;;;;;;;4990030;28;20225;-77
2022/04/14 09:21:29;;;;;;;28.15;25.45;;;;;;;;;;5008767;28;20294;-79
2022/04/14 09:23:54;;;;;;;29.02;25.95;;;;;;;;;;5002397;28;20221;-78
2022/04/14 09:26:23;;;;;;;30.05;25.40;;;;;;;;;;4996256;28;20322;-77
2022/04/14 09:29:24;;;;;;;27.38;24.52;;;;;;;;;;4988242;28;20230;-79
2022/04/14 09:31:54;;;;;;;26.15;23.52;;;;;;;;;;4907776;29;20227;-79
2022/04/14 09:34:51;;;;;;;25.35;22.80;;;;;;;;;;4971960;28;20269;-80
2022/04/14 09:37:20;;;;;;;26.27;23.50;;;;;;;;;;5005492;28;20229;-78
2022/04/14 09:39:49;;;;;;;25.23;22.58;;;;;;;;;;5013489;28;20228;-78
2022/04/14 09:42:20;;;;;;;26.02;22.92;;;;;;;;;;4986615;28;20312;-80
2022/04/14 09:44:48;;;;;;;25.83;23.10;;;;;;;;;;4984009;28;20305;-79
2022/04/14 09:47:23;;;;;;;26.17;23.52;;;;;;;;;;5010534;28;20241;-79
2022/04/14 09:49:51;;;;;;;25.00;22.17;;;;;;;;;;4981970;28;20221;-78
2022/04/14 09:52:16;;;;;;;24.70;21.70;;;;;;;;;;4983395;28;20214;-79
2022/04/14 09:54:45;;;;;;;24.25;21.83;;;;;;;;;;4999994;28;20229;-79
2022/04/14 09:57:15;;;;;;;24.60;22.13;;;;;;;;;;4991014;28;20213;-77
2022/04/14 09:59:43;;;;;;;24.08;21.60;;;;;;;;;;5002672;28;20232;-79
2022/04/14 10:02:12;;;;;;;24.02;21.63;;;;;;;;;;4989144;28;20241;-77
2022/04/14 10:04:49;;;;;;;23.73;21.33;;;;;;;;;;4975563;28;20228;-76
2022/04/14 10:07:15;;;;;;;22.75;20.35;;;;;;;;;;5007647;28;20251;-79
2022/04/14 10:09:42;;;;;;;24.15;21.75;;;;;;;;;;4993890;28;20236;-78
2022/04/14 10:12:19;;;;;;;26.00;22.67;;;;;;;;;;5000515;28;20218;-80
2022/04/14 10:14:56;;;;;;;22.65;20.30;;;;;;;;;;4994964;28;20244;-79
2022/04/14 10:17:25;;;;;;;21.38;19.17;;;;;;;;;;5001374;28;20220;-81
2022/04/14 10:19:53;;;;;;;21.27;19.17;;;;;;;;;;5001430;28;20238;-80
2022/04/14 10:22:19;;;;;;;20.77;18.63;;;;;;;;;;4988404;28;20285;-80
2022/04/14 10:24:45;;;;;;;21.55;19.30;;;;;;;;;;4990238;28;20237;-80
2022/04/14 10:27:10;;;;;;;21.33;19.13;;;;;;;;;;4983203;28;20979;-80
2022/04/14 10:29:39;;;;;;;22.42;18.02;;;;;;;;;;5006547;28;20245;-80
2022/04/14 10:32:05;;;;;;;20.85;18.65;;;;;;;;;;4992902;28;20893;-79
2022/04/14 10:34:33;;;;;;;19.48;17.58;;;;;;;;;;5006531;28;20218;-79
2022/04/14 10:37:02;;;;;;;18.40;16.33;;;;;;;;;;4988955;28;20773;-78
2022/04/14 10:39:28;;;;;;;19.02;16.15;;;;;;;;;;4962663;28;20227;-78
2022/04/14 10:41:56;;;;;;;18.50;16.48;;;;;;;;;;4981024;28;20228;-79
2022/04/14 10:44:21;;;;;;;18.35;16.60;;;;;;;;;;4988472;28;20427;-79
2022/04/14 10:46:50;;;;;;;18.17;16.27;;;;;;;;;;4971145;28;20237;-80
2022/04/14 10:49:17;;;;;;;17.80;15.98;;;;;;;;;;4994624;28;20226;-80
2022/04/14 10:51:45;;;;;;;18.30;16.25;;;;;;;;;;4981515;28;20303;-80
2022/04/14 10:54:11;;;;;;;17.98;16.17;;;;;;;;;;4981175;28;20225;-80
2022/04/14 10:56:36;;;;;;;18.48;16.50;;;;;;;;;;4964472;28;20319;-80
2022/04/14 10:59:04;;;;;;;17.00;15.20;;;;;;;;;;4990169;28;20267;-78
2022/04/14 11:01:45;;;;;;;16.80;15.07;;;;;;;;;;4978179;28;20221;-78
2022/04/14 11:04:23;;;;;;;17.60;15.88;;;;;;;;;;5010346;28;20244;-78
2022/04/14 11:06:57;;;;;;;17.75;16.00;;;;;;;;;;5009902;28;20235;-78
2022/04/14 11:09:44;;;;;;;16.00;14.45;;;;;;;;;;4977247;28;20236;-79
2022/04/14 11:12:17;;;;;;;17.52;14.50;;;;;;;;;;4987377;28;20843;-78
2022/04/14 11:14:53;;;;;;;16.80;15.07;;;;;;;;;;5003939;28;20221;-78
2022/04/14 11:17:30;;;;;;;16.65;15.00;;;;;;;;;;4987076;28;20225;-79
2022/04/14 11:20:12;;;;;;;16.95;15.15;;;;;;;;;;4988923;28;20220;-79
2022/04/14 11:23:09;;;;;;;16.92;15.23;;;;;;;;;;4970837;28;20234;-79
2022/04/14 11:25:47;;;;;;;18.40;16.20;;;;;;;;;;4995412;28;20253;-79
2022/04/14 11:29:10;;;;;;;17.80;15.90;;;;;;;;;;4992567;28;20231;-79
2022/04/14 11:31:41;;;;;;;17.02;15.32;;;;;;;;;;4926751;29;20302;-79
2022/04/14 11:34:09;;;;;;;17.55;14.75;;;;;;;;;;4942139;29;20220;-79
2022/04/14 11:37:27;;;;;;;15.98;14.55;;;;;;;;;;4956827;28;20248;-80
2022/04/14 11:40:22;;;;;;;11.20;10.10;;;;;;;;;;4987494;28;20654;-79
2022/04/14 11:42:58;;;;;;;13.20;11.80;;;;;;;;;;4988526;28;20209;-79
2022/04/14 11:45:32;;;;;;;13.13;11.82;;;;;;;;;;4990020;28;20272;-79
2022/04/14 11:48:00;;;;;;;12.85;11.55;;;;;;;;;;4978057;28;20229;-80
2022/04/14 11:50:27;;;;;;;12.20;11.00;;;;;;;;;;5005111;28;20801;-81
2022/04/14 11:52:55;;;;;;;11.95;10.75;;;;;;;;;;4986978;28;20225;-79
2022/04/14 11:55:45;;;;;;;11.02;9.88;;;;;;;;;;4980739;28;20590;-79
2022/04/14 11:58:15;;;;;;;11.35;10.25;;;;;;;;;;4972451;28;20245;-80
2022/04/14 12:00:47;;;;;;;13.07;9.90;;;;;;;;;;4988785;28;20639;-80
2022/04/14 12:03:15;;;;;;;11.35;10.15;;;;;;;;;;5006819;28;20234;-79
2022/04/14 12:05:52;;;;;;;12.60;10.50;;;;;;;;;;4975040;28;20222;-79
2022/04/14 12:08:20;;;;;;;11.38;10.20;;;;;;;;;;5000894;28;20264;-78
2022/04/14 12:10:45;;;;;;;11.60;10.45;;;;;;;;;;4991005;28;20225;-80
2022/04/14 12:13:11;;;;;;;13.70;10.82;;;;;;;;;;4986479;28;20249;-81
2022/04/14 12:15:37;;;;;;;11.70;10.50;;;;;;;;;;4994896;28;20252;-79
2022/04/14 12:18:07;;;;;;;12.27;10.95;;;;;;;;;;5007824;28;20221;-79
2022/04/14 12:20:40;;;;;;;12.88;11.45;;;;;;;;;;5008333;28;20296;-80
2022/04/14 12:23:11;;;;;;;11.75;10.55;;;;;;;;;;4965841;28;20229;-78
2022/04/14 12:25:37;;;;;;;11.55;10.32;;;;;;;;;;5001248;28;20244;-79
2022/04/14 12:28:03;;;;;;;11.05;9.88;;;;;;;;;;4979340;28;20629;-80
2022/04/14 12:30:29;;;;;;;11.40;10.30;;;;;;;;;;4989016;28;20268;-78
2022/04/14 12:33:06;;;;;;;11.98;9.30;;;;;;;;;;5009330;28;20217;-78
2022/04/14 12:35:32;;;;;;;9.40;8.48;;;;;;;;;;5003677;28;20235;-78
2022/04/14 12:38:21;;;;;;;9.57;8.38;;;;;;;;;;5001095;28;20225;-79
2022/04/14 12:40:59;;;;;;;8.82;7.97;;;;;;;;;;5003258;28;20290;-79
2022/04/14 12:43:28;;;;;;;9.40;8.50;;;;;;;;;;5004219;28;20283;-79
2022/04/14 12:45:54;;;;;;;9.25;8.43;;;;;;;;;;4992092;28;20230;-80
2022/04/14 12:48:36;;;;;;;9.35;8.43;;;;;;;;;;4994784;28;20234;-79
2022/04/14 12:51:02;;;;;;;9.50;8.52;;;;;;;;;;5006742;28;20225;-78
2022/04/14 12:53:27;;;;;;;9.20;8.30;;;;;;;;;;4986811;28;20229;-79
2022/04/14 12:56:19;;;;;;;9.02;8.13;;;;;;;;;;4989833;28;20217;-80
2022/04/14 12:59:12;;;;;;;11.02;8.85;;;;;;;;;;4992701;28;20230;-79
2022/04/14 13:02:07;;;;;;;8.43;7.65;;;;;;;;;;4993683;28;20225;-80
2022/04/14 13:04:44;;;;;;;10.35;9.40;;;;;;;;;;4991012;28;20233;-78
2022/04/14 13:07:13;;;;;;;11.88;10.32;;;;;;;;;;4984396;28;20286;-79
2022/04/14 13:09:39;;;;;;;11.10;9.95;;;;;;;;;;4982735;28;20230;-79
2022/04/14 13:12:08;;;;;;;10.43;9.23;;;;;;;;;;4965721;28;20225;-79
2022/04/14 13:14:43;;;;;;;11.25;10.15;;;;;;;;;;4992334;28;20218;-79
2022/04/14 13:17:09;;;;;;;11.98;10.88;;;;;;;;;;4981910;28;20229;-79
2022/04/14 13:19:35;;;;;;;12.05;10.77;;;;;;;;;;4984011;28;20703;-80
2022/04/14 13:22:00;;;;;;;13.70;12.30;;;;;;;;;;4993047;28;20368;-79
2022/04/14 13:24:28;;;;;;;13.38;12.07;;;;;;;;;;4997546;28;20221;-80
2022/04/14 13:26:53;;;;;;;13.93;12.52;;;;;;;;;;5002638;28;20221;-79
2022/04/14 13:29:21;;;;;;;14.43;12.93;;;;;;;;;;4980964;28;20607;-78
2022/04/14 13:31:49;;;;;;;14.63;13.07;;;;;;;;;;4989629;28;20228;-80
2022/04/14 13:34:14;;;;;;;14.53;13.03;;;;;;;;;;4991339;28;20233;-80
2022/04/14 13:36:39;;;;;;;13.10;11.90;;;;;;;;;;4982469;28;20222;-80
2022/04/14 13:39:07;;;;;;;14.48;13.07;;;;;;;;;;4991857;28;20229;-78
2022/04/14 13:41:34;;;;;;;15.52;13.05;;;;;;;;;;5004010;28;20338;-78
2022/04/14 13:43:59;;;;;;;14.30;12.98;;;;;;;;;;4999555;28;20271;-79
2022/04/14 13:46:27;;;;;;;13.65;12.18;;;;;;;;;;4994299;28;20221;-76
2022/04/14 13:48:53;;;;;;;13.70;12.35;;;;;;;;;;4998708;28;20237;-75
2022/04/14 13:51:18;;;;;;;13.70;12.40;;;;;;;;;;5006616;28;20276;-78
2022/04/14 13:53:44;;;;;;;13.25;11.95;;;;;;;;;;5004282;28;20248;-77
2022/04/14 13:56:09;;;;;;;12.45;11.35;;;;;;;;;;4991515;28;20245;-77
2022/04/14 13:58:37;;;;;;;13.23;12.00;;;;;;;;;;5010148;28;20263;-77
2022/04/14 14:01:06;;;;;;;13.23;12.05;;;;;;;;;;5016346;28;20292;-78
2022/04/14 14:03:32;;;;;;;13.55;12.13;;;;;;;;;;5008652;28;20221;-78
2022/04/14 14:05:58;;;;;;;13.27;11.82;;;;;;;;;;5003657;28;20296;-80
2022/04/14 14:08:26;;;;;;;13.77;12.30;;;;;;;;;;5006910;28;20229;-79
2022/04/14 14:10:54;;;;;;;14.32;12.82;;;;;;;;;;4986232;28;20230;-78
2022/04/14 14:13:22;;;;;;;13.35;12.05;;;;;;;;;;4979673;28;20304;-80
2022/04/14 14:15:47;;;;;;;14.55;12.93;;;;;;;;;;4975872;28;20232;-78
2022/04/14 14:18:16;;;;;;;14.20;12.80;;;;;;;;;;4976154;28;20280;-79
2022/04/14 14:20:43;;;;;;;13.65;12.35;;;;;;;;;;5007063;28;20230;-80
2022/04/14 14:23:09;;;;;;;13.95;12.55;;;;;;;;;;4972149;28;20233;-79
2022/04/14 14:25:37;;;;;;;13.50;12.10;;;;;;;;;;4978480;28;20230;-79
2022/04/14 14:28:04;;;;;;;13.00;11.00;;;;;;;;;;4980759;28;20222;-79
2022/04/14 14:30:31;;;;;;;15.13;12.70;;;;;;;;;;4999954;28;20214;-80